Time;durP1;ratioP1;P1;durP2;ratioP2;P2;SDS_P1;SDS_P2;PMS_P1;PMS_P2;Temp;Humidity;BMP_temperature;BMP_pressure;BME280_temperature;BME280_humidity;BME280_pressure;Samples;Min_cycle;Max_cycle;Signal;HPM_P1;HPM_P2
2022/02/03 00:01:55;;;;;;;24.00;11.60;;;5.80;99.70;;;;;;5071266;28;20545;-66
2022/02/03 00:04:28;;;;;;;24.63;12.20;;;5.80;99.70;;;;;;5071253;28;20439;-67
2022/02/03 00:06:59;;;;;;;26.37;11.20;;;5.80;99.70;;;;;;5071292;28;20845;-66
2022/02/03 00:09:58;;;;;;;23.10;11.27;;;5.90;99.70;;;;;;5070937;28;20540;-66
2022/02/03 00:26:19;;;;;;;21.53;10.80;;;5.80;99.70;;;;;;5053743;28;20447;-66
2022/02/03 00:28:48;;;;;;;21.57;11.13;;;5.80;99.70;;;;;;5070717;28;20435;-66
2022/02/03 00:31:34;;;;;;;21.83;10.40;;;5.80;99.70;;;;;;5070520;28;20533;-66
2022/02/03 00:34:05;;;;;;;20.87;11.03;;;5.80;99.70;;;;;;5071073;28;20478;-66
2022/02/03 00:36:52;;;;;;;25.60;11.60;;;5.80;99.70;;;;;;5070957;28;20881;-66
2022/02/03 00:50:26;;;;;;;22.77;11.43;;;5.80;99.70;;;;;;5063779;28;20431;-66
2022/02/03 00:52:53;;;;;;;22.23;11.03;;;5.80;99.70;;;;;;5071334;28;20541;-66
2022/02/03 00:55:20;;;;;;;23.00;10.80;;;5.80;99.70;;;;;;5070791;28;20474;-66
2022/02/03 00:57:51;;;;;;;22.70;11.07;;;5.80;99.70;;;;;;5070557;28;20494;-64
2022/02/03 01:00:20;;;;;;;22.63;10.33;;;5.80;99.70;;;;;;5071175;28;20478;-66
2022/02/03 01:02:52;;;;;;;23.20;10.53;;;5.80;99.70;;;;;;5070975;28;20937;-66
2022/02/03 01:05:20;;;;;;;21.80;11.03;;;5.80;99.70;;;;;;5070831;28;20439;-66
2022/02/03 01:07:50;;;;;;;20.30;10.40;;;5.90;99.70;;;;;;5070707;28;20443;-64
2022/02/03 01:10:22;;;;;;;24.70;11.63;;;5.80;99.70;;;;;;5070828;28;20449;-66
2022/02/03 01:12:59;;;;;;;25.30;11.60;;;5.90;99.70;;;;;;5070949;28;20442;-66
2022/02/03 01:15:34;;;;;;;25.30;11.60;;;5.90;99.70;;;;;;5070659;28;20482;-66
2022/02/03 01:18:31;;;;;;;24.83;11.60;;;5.90;99.70;;;;;;5070370;28;20454;-66
2022/02/03 01:21:26;;;;;;;22.30;11.83;;;5.90;99.70;;;;;;5070638;28;20445;-66
2022/02/03 01:35:08;;;;;;;20.03;9.63;;;6.00;99.70;;;;;;5070651;28;20863;-66
2022/02/03 01:37:49;;;;;;;20.27;9.97;;;6.00;99.70;;;;;;5074011;28;20462;-66
2022/02/03 01:45:56;;;;;;;20.60;10.60;;;6.10;99.70;;;;;;5058069;28;20462;-67
2022/02/03 01:48:38;;;;;;;18.43;9.00;;;6.10;99.70;;;;;;5073503;28;20451;-66
2022/02/03 01:53:56;;;;;;;19.10;9.00;;;6.10;99.70;;;;;;5074106;28;20485;-67
2022/02/03 01:56:29;;;;;;;18.23;9.50;;;6.10;99.70;;;;;;5073725;28;20470;-66
2022/02/03 01:58:59;;;;;;;21.07;10.00;;;6.10;99.70;;;;;;5073252;28;20449;-66
2022/02/03 02:01:28;;;;;;;22.00;9.57;;;6.10;99.70;;;;;;5073636;28;20525;-66
2022/02/03 02:04:08;;;;;;;17.80;8.73;;;6.10;99.70;;;;;;5073557;28;20443;-66
2022/02/03 02:07:05;;;;;;;21.77;10.43;;;6.00;99.70;;;;;;5073534;28;20462;-67
2022/02/03 02:09:49;;;;;;;29.00;12.60;;;6.00;99.70;;;;;;5064240;28;20832;-66
2022/02/03 02:12:36;;;;;;;28.73;12.80;;;6.00;99.70;;;;;;5075011;22;20479;-66
2022/02/03 02:15:28;;;;;;;29.13;13.70;;;6.00;99.70;;;;;;5033399;28;20488;-66
2022/02/03 02:18:17;;;;;;;28.47;13.53;;;6.00;99.70;;;;;;5033167;28;20476;-66
2022/02/03 02:37:50;;;;;;;20.40;10.27;;;6.10;99.70;;;;;;5033034;28;20420;-66
2022/02/03 02:43:11;;;;;;;19.87;9.57;;;6.10;99.70;;;;;;5031862;28;20809;-66
2022/02/03 02:45:49;;;;;;;20.70;10.17;;;6.10;99.70;;;;;;5032946;28;20755;-66
2022/02/03 02:48:30;;;;;;;20.03;10.50;;;6.10;99.70;;;;;;5031705;28;20451;-66
2022/02/03 02:51:07;;;;;;;18.70;10.00;;;6.20;99.70;;;;;;5032856;28;20459;-66
2022/02/03 02:53:58;;;;;;;20.13;9.47;;;6.10;99.70;;;;;;5032654;28;20502;-66
2022/02/03 02:56:33;;;;;;;20.13;9.40;;;6.20;99.70;;;;;;5032704;28;20920;-67
2022/02/03 02:59:22;;;;;;;18.17;9.50;;;6.20;99.70;;;;;;5032274;28;20463;-67
2022/02/03 03:30:05;;;;;;;16.57;8.40;;;6.10;99.70;;;;;;5031816;28;20455;-66
2022/02/03 03:32:52;;;;;;;14.50;7.60;;;6.10;99.70;;;;;;5031200;28;20830;-67
2022/02/03 03:35:34;;;;;;;16.73;7.73;;;6.10;99.70;;;;;;5031881;28;20586;-67
2022/02/03 03:38:03;;;;;;;20.37;7.33;;;6.20;99.70;;;;;;5031424;28;20488;-67
2022/02/03 03:40:32;;;;;;;17.27;8.00;;;6.20;99.70;;;;;;5031758;28;20449;-66
2022/02/03 03:43:05;;;;;;;15.73;7.70;;;6.20;99.70;;;;;;5031782;28;20477;-67
2022/02/03 03:45:34;;;;;;;14.57;6.50;;;6.10;99.70;;;;;;5031862;28;20847;-66
2022/02/03 03:48:06;;;;;;;14.03;7.13;;;6.20;99.70;;;;;;5031272;28;20445;-66
2022/02/03 03:50:36;;;;;;;14.60;6.60;;;6.20;99.70;;;;;;5031687;28;20530;-67
2022/02/03 03:53:13;;;;;;;16.33;7.43;;;6.20;99.70;;;;;;5031670;28;20464;-67
2022/02/03 03:55:49;;;;;;;15.87;6.70;;;6.30;99.70;;;;;;5031472;28;20484;-66
2022/02/03 03:58:42;;;;;;;16.07;7.60;;;6.20;99.70;;;;;;5031148;28;20488;-66
2022/02/03 04:30:46;;;;;;;14.47;6.77;;;6.30;99.70;;;;;;5031116;28;20492;-67
2022/02/03 04:39:10;;;;;;;14.97;6.80;;;6.40;99.70;;;;;;5030713;28;20432;-67
2022/02/03 04:59:56;;;;;;;13.63;6.57;;;6.40;99.70;;;;;;4997266;28;20428;-67
2022/02/03 05:02:39;;;;;;;15.77;6.30;;;6.40;99.70;;;;;;5030521;28;20464;-67
2022/02/03 05:05:34;;;;;;;17.10;6.90;;;6.40;99.70;;;;;;5030819;28;20515;-68
2022/02/03 05:08:32;;;;;;;14.17;6.60;;;6.50;99.70;;;;;;5030550;28;20944;-66
2022/02/03 05:11:41;;;;;;;12.80;6.40;;;6.40;99.70;;;;;;5032539;28;20441;-66
2022/02/03 05:17:42;;;;;;;11.50;6.13;;;6.30;99.70;;;;;;5019142;28;20440;-66
2022/02/03 05:23:45;;;;;;;14.17;6.60;;;6.30;99.70;;;;;;4998409;28;20491;-67
2022/02/03 05:26:39;;;;;;;16.40;6.90;;;6.30;99.70;;;;;;5034467;28;20539;-67
2022/02/03 05:45:06;;;;;;;14.03;6.53;;;6.30;99.70;;;;;;4972945;28;20466;-67
2022/02/03 05:48:17;;;;;;;16.83;6.83;;;6.40;99.70;;;;;;5028854;28;20541;-67
2022/02/03 05:51:04;;;;;;;13.73;7.10;;;6.30;99.70;;;;;;5025248;28;20608;-67
2022/02/03 06:04:50;;;;;;;15.83;7.60;;;6.00;99.70;;;;;;5032725;28;20963;-67
2022/02/03 06:07:44;;;;;;;16.90;7.87;;;6.00;99.70;;;;;;5034804;28;20467;-66
2022/02/03 06:12:59;;;;;;;14.90;7.60;;;5.90;99.70;;;;;;5026608;28;21089;-67
2022/02/03 06:15:36;;;;;;;16.97;7.43;;;5.90;99.70;;;;;;5027765;28;20484;-66
2022/02/03 06:21:23;;;;;;;15.50;7.60;;;5.90;99.70;;;;;;5032702;28;20531;-66
2022/02/03 06:23:56;;;;;;;22.60;9.60;;;5.90;99.70;;;;;;5030401;28;20461;-67
2022/02/03 06:29:11;;;;;;;21.03;8.97;;;5.90;99.70;;;;;;5032802;28;20420;-66
2022/02/03 06:31:41;;;;;;;16.20;8.13;;;5.80;99.70;;;;;;5032209;28;20838;-66
2022/02/03 06:34:09;;;;;;;14.87;6.97;;;5.80;99.70;;;;;;5032874;28;20995;-66
2022/02/03 06:36:37;;;;;;;15.67;7.90;;;5.90;99.70;;;;;;5032777;28;20451;-65
2022/02/03 06:39:11;;;;;;;14.27;7.13;;;5.90;99.70;;;;;;5031892;28;20491;-66
2022/02/03 06:41:38;;;;;;;16.70;7.50;;;5.90;99.70;;;;;;5032022;28;20449;-66
2022/02/03 06:44:05;;;;;;;15.17;7.40;;;5.90;99.70;;;;;;5032114;28;20477;-66
2022/02/03 06:46:33;;;;;;;15.63;7.30;;;6.00;99.70;;;;;;5032741;28;20447;-66
2022/02/03 06:49:11;;;;;;;17.57;7.73;;;6.00;99.70;;;;;;5032287;28;20451;-66
2022/02/03 06:51:46;;;;;;;16.07;7.30;;;6.00;99.70;;;;;;5032685;28;20451;-66
2022/02/03 06:54:19;;;;;;;15.10;6.30;;;6.10;99.70;;;;;;5032514;28;20468;-66
2022/02/03 06:56:53;;;;;;;14.40;7.30;;;6.10;99.70;;;;;;5032547;28;20474;-66
2022/02/03 06:59:25;;;;;;;14.70;7.53;;;6.20;99.70;;;;;;5031986;28;20452;-66
2022/02/03 07:01:52;;;;;;;14.90;7.60;;;6.20;99.70;;;;;;5032496;28;20444;-66
2022/02/03 07:04:23;;;;;;;18.10;7.53;;;6.20;99.70;;;;;;5032233;28;20464;-66
2022/02/03 07:06:50;;;;;;;14.20;6.93;;;6.20;99.70;;;;;;5032330;28;20890;-66
2022/02/03 07:09:17;;;;;;;15.90;7.70;;;6.20;99.70;;;;;;5031740;28;20449;-66
2022/02/03 07:11:44;;;;;;;15.37;7.33;;;6.20;99.70;;;;;;5032099;28;20959;-66
2022/02/03 07:14:12;;;;;;;15.03;7.00;;;6.30;99.70;;;;;;5031623;28;20553;-66
2022/02/03 07:16:46;;;;;;;15.90;7.20;;;6.30;99.70;;;;;;5031423;28;20500;-67
2022/02/03 07:19:14;;;;;;;15.47;7.20;;;6.40;99.70;;;;;;5031660;28;20509;-66
2022/02/03 07:21:42;;;;;;;15.20;7.27;;;6.40;99.70;;;;;;5032249;28;21125;-66
2022/02/03 07:24:09;;;;;;;14.63;7.43;;;6.30;99.70;;;;;;5029164;28;20484;-67
2022/02/03 07:26:36;;;;;;;14.40;7.80;;;6.30;99.70;;;;;;5031074;28;20441;-67
2022/02/03 07:29:03;;;;;;;16.97;8.17;;;6.40;99.70;;;;;;5031243;28;20457;-66
2022/02/03 07:31:30;;;;;;;16.23;7.53;;;6.40;99.70;;;;;;5031195;28;20464;-67
2022/02/03 07:34:03;;;;;;;16.77;7.60;;;6.40;99.70;;;;;;5031014;28;20523;-66
2022/02/03 07:36:30;;;;;;;15.33;7.43;;;6.50;99.70;;;;;;5031604;28;20485;-67
2022/02/03 07:38:59;;;;;;;14.40;7.03;;;6.50;99.70;;;;;;5030925;28;20830;-67
2022/02/03 07:41:26;;;;;;;14.60;6.90;;;6.50;99.70;;;;;;5031676;28;20448;-66
2022/02/03 07:43:53;;;;;;;14.97;7.37;;;6.60;99.70;;;;;;5031254;28;20464;-66
2022/02/03 07:46:19;;;;;;;14.20;6.87;;;6.60;99.70;;;;;;5031348;28;20535;-67
2022/02/03 07:48:49;;;;;;;16.37;7.87;;;6.60;99.70;;;;;;5030624;28;21048;-66
2022/02/03 07:51:16;;;;;;;15.57;7.63;;;6.60;99.70;;;;;;5031474;28;20487;-66
2022/02/03 07:53:43;;;;;;;13.77;6.90;;;6.60;99.70;;;;;;5031670;28;20500;-68
2022/02/03 07:56:11;;;;;;;13.40;7.27;;;6.60;99.70;;;;;;5031430;28;20488;-67
2022/02/03 07:58:38;;;;;;;17.90;7.17;;;6.70;99.70;;;;;;5030179;28;20495;-67
2022/02/03 08:01:05;;;;;;;13.60;7.10;;;6.70;99.70;;;;;;5031634;28;20861;-66
2022/02/03 08:03:32;;;;;;;12.53;6.80;;;6.70;99.70;;;;;;5031402;28;20546;-66
2022/02/03 08:06:02;;;;;;;14.60;7.17;;;6.70;99.70;;;;;;5031565;28;20951;-66
2022/02/03 08:08:33;;;;;;;12.97;6.30;;;6.70;99.70;;;;;;5030680;28;20444;-67
2022/02/03 08:11:03;;;;;;;14.97;7.30;;;6.80;99.70;;;;;;5031341;28;20451;-67
2022/02/03 08:16:04;;;;;;;13.40;6.57;;;6.80;99.70;;;;;;5037532;28;20897;-68
2022/02/03 08:18:32;;;;;;;15.50;7.60;;;6.80;99.70;;;;;;5050252;28;20447;-68
2022/02/03 08:21:03;;;;;;;20.30;7.97;;;6.90;99.70;;;;;;5051003;28;20444;-68
2022/02/03 08:26:42;;;;;;;14.37;6.93;;;6.90;99.70;;;;;;5014372;28;20855;-68
2022/02/03 08:32:01;;;;;;;15.27;7.10;;;6.90;99.70;;;;;;5019594;28;20557;-68
2022/02/03 08:34:35;;;;;;;15.10;7.60;;;6.90;99.70;;;;;;5051042;28;20546;-68
2022/02/03 08:37:05;;;;;;;13.97;7.07;;;6.90;99.70;;;;;;5050864;28;20483;-68
2022/02/03 08:39:36;;;;;;;14.10;7.43;;;7.00;99.70;;;;;;5050601;28;20444;-68
2022/02/03 08:42:04;;;;;;;12.87;6.03;;;6.90;99.70;;;;;;5050952;28;20447;-67
2022/02/03 08:44:30;;;;;;;12.77;6.27;;;7.00;99.70;;;;;;5050741;28;21013;-68
2022/02/03 08:46:59;;;;;;;17.93;7.13;;;7.10;99.70;;;;;;5051848;28;20456;-67
2022/02/03 08:49:25;;;;;;;14.13;6.53;;;7.20;99.70;;;;;;5036149;28;20437;-68
2022/02/03 08:51:54;;;;;;;13.63;7.10;;;7.20;99.70;;;;;;5047463;28;20447;-68
2022/02/03 08:54:24;;;;;;;13.53;6.60;;;7.20;99.70;;;;;;5035984;28;20820;-67
2022/02/03 08:57:02;;;;;;;15.50;7.70;;;7.30;99.70;;;;;;5037054;28;21042;-67
2022/02/03 09:00:07;;;;;;;20.60;9.10;;;7.30;99.70;;;;;;5035839;28;20452;-68
2022/02/03 09:36:11;;;;;;;14.20;6.77;;;8.00;99.70;;;;;;5051109;28;20466;-67
2022/02/03 09:38:56;;;;;;;13.40;6.57;;;8.10;99.70;;;;;;5049350;28;20871;-67
2022/02/03 09:41:49;;;;;;;13.33;6.20;;;8.00;99.70;;;;;;5052681;28;20448;-67
2022/02/03 09:52:57;;;;;;;22.27;10.80;;;8.50;99.70;;;;;;5020935;28;20510;-68
2022/02/03 09:55:42;;;;;;;22.57;9.63;;;8.80;99.70;;;;;;5036278;28;20483;-68
2022/02/03 09:58:14;;;;;;;16.17;8.27;;;8.70;99.70;;;;;;5034626;28;20455;-68
2022/02/03 10:00:47;;;;;;;25.60;11.20;;;8.70;99.70;;;;;;5048381;28;20547;-68
2022/02/03 10:03:17;;;;;;;15.97;7.90;;;8.60;99.70;;;;;;5050974;28;20476;-68
2022/02/03 10:05:59;;;;;;;14.33;7.97;;;8.50;99.70;;;;;;5051014;28;21008;-68
2022/02/03 10:08:28;;;;;;;14.00;7.50;;;8.40;99.70;;;;;;5049740;28;20457;-68
2022/02/03 10:11:12;;;;;;;16.10;7.80;;;8.30;99.70;;;;;;5051949;28;20474;-67
2022/02/03 10:13:43;;;;;;;13.50;6.90;;;8.30;99.70;;;;;;5049750;28;20472;-67
2022/02/03 10:16:09;;;;;;;10.90;6.10;;;8.40;99.70;;;;;;5051215;28;20549;-67
2022/02/03 10:18:36;;;;;;;11.00;5.97;;;8.60;99.70;;;;;;5049850;28;20452;-67
2022/02/03 10:21:05;;;;;;;12.47;6.60;;;8.70;99.70;;;;;;5051754;28;20455;-68
2022/02/03 10:23:50;;;;;;;10.90;6.57;;;8.70;99.70;;;;;;5049735;28;20487;-67
2022/02/03 10:26:17;;;;;;;13.60;6.07;;;8.80;99.70;;;;;;5051407;28;20447;-68
2022/02/03 10:28:53;;;;;;;10.93;6.60;;;9.00;99.70;;;;;;5049313;28;20449;-68
2022/02/03 10:31:24;;;;;;;10.03;5.80;;;8.90;99.70;;;;;;5050478;28;20447;-67
2022/02/03 10:34:01;;;;;;;13.53;7.20;;;9.00;99.70;;;;;;5049611;28;20467;-68
2022/02/03 10:36:42;;;;;;;15.87;7.93;;;9.00;99.70;;;;;;5051298;28;20482;-68
2022/02/03 10:39:51;;;;;;;11.57;6.60;;;9.00;99.70;;;;;;5050483;28;20451;-68
2022/02/03 10:42:26;;;;;;;11.30;5.70;;;9.00;99.70;;;;;;5049421;28;20844;-68
2022/02/03 10:45:08;;;;;;;9.70;5.43;;;9.10;99.70;;;;;;5050958;28;20966;-67
2022/02/03 10:50:43;;;;;;;9.30;5.40;;;9.10;99.70;;;;;;5045882;28;20974;-67
2022/02/03 10:53:31;;;;;;;25.37;10.47;;;9.30;99.70;;;;;;5033786;28;20603;-67
2022/02/03 10:56:11;;;;;;;28.83;11.00;;;9.30;99.70;;;;;;5033806;28;20574;-68
2022/02/03 11:04:39;;;;;;;15.30;6.50;;;9.20;99.70;;;;;;4978979;28;20458;-67
2022/02/03 11:07:12;;;;;;;12.43;6.97;;;9.30;99.70;;;;;;4987591;28;20444;-68
2022/02/03 11:09:53;;;;;;;11.20;5.63;;;9.40;99.70;;;;;;5024096;28;20468;-67
2022/02/03 11:12:24;;;;;;;8.93;5.10;;;9.30;99.70;;;;;;5049187;28;20476;-68
2022/02/03 11:14:52;;;;;;;10.93;5.40;;;9.30;99.70;;;;;;5050414;28;20482;-68
2022/02/03 11:17:19;;;;;;;10.20;5.27;;;9.20;99.70;;;;;;5034333;28;20480;-68
2022/02/03 11:19:52;;;;;;;10.37;5.60;;;9.20;99.70;;;;;;5033393;28;20484;-67
2022/02/03 11:22:27;;;;;;;11.07;5.87;;;9.20;99.70;;;;;;5050203;28;20966;-68
2022/02/03 11:25:06;;;;;;;12.53;6.40;;;9.30;99.70;;;;;;5050053;28;20478;-68
2022/02/03 11:27:50;;;;;;;14.00;7.30;;;9.20;99.70;;;;;;5050195;28;20451;-68
2022/02/03 11:33:25;;;;;;;8.17;4.90;;;9.30;99.70;;;;;;5047915;28;20782;-67
2022/02/03 11:36:20;;;;;;;10.37;5.33;;;9.30;99.70;;;;;;5049983;28;20513;-68
2022/02/03 11:39:16;;;;;;;15.77;6.33;;;9.30;99.70;;;;;;5051224;28;20448;-67
2022/02/03 11:53:39;;;;;;;8.70;4.37;;;9.30;99.70;;;;;;5051758;28;20531;-68
2022/02/03 11:59:12;;;;;;;6.73;3.70;;;9.40;99.70;;;;;;5045980;28;20545;-67
2022/02/03 12:01:52;;;;;;;6.40;3.63;;;9.40;99.70;;;;;;5039968;28;20817;-67
2022/02/03 12:07:46;;;;;;;6.10;3.40;;;9.50;99.70;;;;;;5045146;28;20448;-67
2022/02/03 12:10:59;;;;;;;6.20;3.47;;;9.60;99.70;;;;;;5049602;28;20513;-68
2022/02/03 12:13:59;;;;;;;5.90;3.60;;;9.60;99.70;;;;;;5049536;28;20882;-67
2022/02/03 12:16:33;;;;;;;6.00;3.33;;;9.50;99.70;;;;;;5040960;28;20532;-67
2022/02/03 12:19:20;;;;;;;6.20;3.10;;;9.60;99.70;;;;;;5047405;28;20828;-67
2022/02/03 12:22:07;;;;;;;11.07;5.37;;;9.60;99.70;;;;;;5048744;28;20534;-67
2022/02/03 12:24:42;;;;;;;5.10;3.30;;;9.60;99.70;;;;;;5032158;28;20504;-68
2022/02/03 12:27:28;;;;;;;5.50;3.13;;;9.60;99.70;;;;;;5044735;28;20530;-67
2022/02/03 12:30:01;;;;;;;6.60;3.00;;;9.60;99.70;;;;;;5046269;28;21002;-67
2022/02/03 12:32:43;;;;;;;6.60;2.80;;;9.70;99.70;;;;;;5048848;28;20452;-67
2022/02/03 12:38:20;;;;;;;5.57;3.00;;;9.90;99.70;;;;;;5049775;28;20479;-67
2022/02/03 12:40:54;;;;;;;4.70;2.80;;;9.90;99.70;;;;;;5050251;28;20505;-68
2022/02/03 12:43:31;;;;;;;4.67;2.77;;;9.90;99.70;;;;;;5050856;28;20909;-68
2022/02/03 12:46:01;;;;;;;4.20;2.60;;;9.90;99.70;;;;;;5050931;28;21017;-68
2022/02/03 12:48:28;;;;;;;5.43;2.53;;;9.90;99.70;;;;;;5050521;28;20450;-67
2022/02/03 12:50:57;;;;;;;4.63;2.70;;;10.00;99.70;;;;;;5050864;28;20448;-68
2022/02/03 12:53:30;;;;;;;4.17;2.50;;;9.90;99.70;;;;;;5050025;28;20464;-69
2022/02/03 12:55:57;;;;;;;6.20;2.80;;;10.00;99.70;;;;;;5050088;28;20455;-68
2022/02/03 12:58:26;;;;;;;5.40;2.87;;;10.10;99.70;;;;;;5050145;28;20455;-68
2022/02/03 13:00:56;;;;;;;4.80;2.77;;;10.10;99.70;;;;;;5050218;28;20832;-68
2022/02/03 13:03:29;;;;;;;4.50;2.70;;;10.10;99.70;;;;;;5050697;28;20514;-68
2022/02/03 13:06:03;;;;;;;4.67;2.57;;;10.10;99.70;;;;;;5050502;28;20444;-68
2022/02/03 13:08:37;;;;;;;4.97;2.70;;;10.10;99.70;;;;;;5050362;28;20459;-68
2022/02/03 13:11:09;;;;;;;4.50;2.57;;;10.10;99.70;;;;;;5050882;28;20487;-67
2022/02/03 13:13:41;;;;;;;3.90;2.20;;;10.10;99.70;;;;;;5050579;28;20891;-68
2022/02/03 13:16:09;;;;;;;5.70;3.10;;;10.00;99.70;;;;;;5050731;28;21013;-68
2022/02/03 13:18:42;;;;;;;4.80;2.60;;;9.90;99.70;;;;;;5050166;28;20954;-68
2022/02/03 13:21:32;;;;;;;4.30;2.67;;;9.90;99.70;;;;;;5050771;28;20889;-67
2022/02/03 13:24:23;;;;;;;5.80;3.07;;;9.90;99.70;;;;;;5050571;28;20841;-67
2022/02/03 13:26:50;;;;;;;6.80;3.67;;;9.90;99.70;;;;;;5050785;28;20947;-68
2022/02/03 13:29:25;;;;;;;5.27;2.70;;;9.90;99.70;;;;;;5050052;28;20935;-68
2022/02/03 13:31:55;;;;;;;5.40;2.90;;;10.00;99.70;;;;;;5052046;28;20446;-68
2022/02/03 13:34:34;;;;;;;4.97;2.80;;;9.90;99.70;;;;;;5054311;28;20478;-68
2022/02/03 13:37:15;;;;;;;6.00;2.70;;;9.90;99.70;;;;;;5054078;28;20483;-68
2022/02/03 13:39:47;;;;;;;7.40;3.07;;;9.90;99.70;;;;;;5053700;28;20499;-68
2022/02/03 13:42:14;;;;;;;5.57;2.80;;;9.90;99.70;;;;;;5054116;28;20456;-68
2022/02/03 13:44:41;;;;;;;7.77;3.40;;;9.80;99.70;;;;;;5053959;28;20499;-68
2022/02/03 13:47:21;;;;;;;5.27;2.63;;;9.80;99.70;;;;;;5053937;28;20501;-67
2022/02/03 13:50:01;;;;;;;6.10;2.97;;;9.90;99.70;;;;;;5053545;28;20440;-68
2022/02/03 13:52:35;;;;;;;5.30;3.00;;;9.90;99.70;;;;;;5053860;28;20978;-68
2022/02/03 14:18:04;;;;;;;7.43;3.70;;;9.90;99.70;;;;;;5052595;28;20514;-65
2022/02/03 14:28:58;;;;;;;7.17;3.50;;;9.80;99.70;;;;;;5052917;28;20435;-67
2022/02/03 14:31:25;;;;;;;7.00;3.23;;;9.80;99.70;;;;;;5053277;28;20447;-67
2022/02/03 14:33:53;;;;;;;5.73;2.87;;;9.90;99.70;;;;;;5053063;28;20473;-67
2022/02/03 14:36:23;;;;;;;5.30;2.60;;;9.80;99.70;;;;;;5053014;28;20450;-67
2022/02/03 14:38:57;;;;;;;7.00;3.00;;;9.70;99.70;;;;;;5052566;28;20551;-67
2022/02/03 14:41:30;;;;;;;4.73;2.80;;;9.60;99.70;;;;;;5053095;28;20454;-67
2022/02/03 14:43:59;;;;;;;4.80;2.60;;;9.60;99.70;;;;;;5051937;28;20507;-67
2022/02/03 14:46:26;;;;;;;9.70;3.30;;;9.60;99.70;;;;;;5052995;28;20540;-67
2022/02/03 14:48:53;;;;;;;5.57;2.47;;;9.60;99.70;;;;;;5052344;28;20475;-68
2022/02/03 14:51:24;;;;;;;5.73;2.83;;;9.50;99.70;;;;;;5051556;28;20451;-67
2022/02/03 14:53:56;;;;;;;5.97;2.63;;;9.50;99.70;;;;;;5043469;28;20770;-66
2022/02/03 14:59:09;;;;;;;5.17;2.70;;;9.40;99.70;;;;;;5043105;28;20529;-67
2022/02/03 15:01:38;;;;;;;6.57;2.70;;;9.40;99.70;;;;;;5046773;28;20974;-67
2022/02/03 15:04:09;;;;;;;5.10;2.50;;;9.40;99.70;;;;;;5052024;28;20463;-68
2022/02/03 15:06:39;;;;;;;5.20;2.80;;;9.30;99.70;;;;;;5051758;28;20556;-66
2022/02/03 15:09:20;;;;;;;8.50;4.23;;;9.30;99.70;;;;;;5052060;28;20452;-67
2022/02/03 15:12:04;;;;;;;9.80;3.63;;;9.30;99.70;;;;;;5052597;28;20466;-67
2022/02/03 15:14:32;;;;;;;8.10;4.33;;;9.20;99.70;;;;;;5042564;28;21021;-68
2022/02/03 15:16:58;;;;;;;8.97;4.53;;;9.20;99.70;;;;;;5032297;28;20476;-67
2022/02/03 15:19:26;;;;;;;7.97;3.47;;;9.10;99.70;;;;;;5031972;28;20453;-67
2022/02/03 15:21:52;;;;;;;7.43;3.80;;;9.10;99.70;;;;;;5046457;28;21010;-67
2022/02/03 15:24:19;;;;;;;7.00;3.93;;;9.10;99.70;;;;;;5052166;28;20850;-68
2022/02/03 15:26:46;;;;;;;10.40;4.50;;;9.00;99.70;;;;;;5052035;28;20448;-67
2022/02/03 15:29:14;;;;;;;8.63;4.60;;;9.00;99.70;;;;;;5051634;28;20447;-67
2022/02/03 15:31:42;;;;;;;15.93;4.93;;;8.80;99.70;;;;;;5038315;28;20472;-68
2022/02/03 15:34:11;;;;;;;7.93;4.10;;;8.80;99.70;;;;;;5042455;28;20480;-68
2022/02/03 15:36:39;;;;;;;8.70;4.23;;;8.80;99.70;;;;;;5056794;28;20850;-67
2022/02/03 15:39:10;;;;;;;9.30;3.60;;;8.70;99.70;;;;;;5051302;28;20452;-67
2022/02/03 15:41:39;;;;;;;6.53;3.80;;;8.60;99.70;;;;;;5051004;28;20532;-68
2022/02/03 15:44:06;;;;;;;8.63;4.40;;;8.60;99.70;;;;;;5051710;28;20471;-67
2022/02/03 15:46:41;;;;;;;10.43;4.33;;;8.50;99.70;;;;;;5046565;28;20457;-68
2022/02/03 15:49:17;;;;;;;10.33;4.30;;;8.40;99.70;;;;;;5051363;28;21041;-66
2022/02/03 15:57:42;;;;;;;9.80;5.60;;;8.40;99.70;;;;;;5057142;28;20465;-67
2022/02/03 16:00:49;;;;;;;9.50;4.80;;;8.30;99.70;;;;;;5046856;28;20948;-67
2022/02/03 16:03:21;;;;;;;10.63;4.63;;;8.20;99.70;;;;;;5040342;28;20997;-67
2022/02/03 16:14:46;;;;;;;11.23;5.80;;;7.90;99.70;;;;;;5037638;28;20865;-68
2022/02/03 16:16:57;;;;;;;11.00;5.77;;;7.80;99.70;;;;;;5045287;28;20472;-67
2022/02/03 16:19:33;;;;;;;18.20;7.07;;;7.80;99.70;;;;;;5050660;28;20439;-68
2022/02/03 16:22:05;;;;;;;17.10;7.70;;;7.70;99.70;;;;;;5053857;28;20539;-67
2022/02/03 16:24:43;;;;;;;15.33;7.30;;;7.70;99.70;;;;;;5046770;28;20479;-67
2022/02/03 16:52:13;;;;;;;11.00;5.10;;;7.60;99.70;;;;;;5029070;28;20420;-67
2022/02/03 16:54:40;;;;;;;9.50;4.60;;;7.50;99.70;;;;;;5028982;28;20483;-67
2022/02/03 16:57:13;;;;;;;9.20;4.83;;;7.50;99.70;;;;;;5028758;28;20483;-67
2022/02/03 16:59:48;;;;;;;9.10;4.80;;;7.50;99.70;;;;;;5030034;28;20453;-66
2022/02/03 17:02:15;;;;;;;8.73;4.80;;;7.50;99.70;;;;;;5050841;28;20455;-66
2022/02/03 17:04:42;;;;;;;7.63;4.33;;;7.40;99.70;;;;;;5050164;28;20468;-66
2022/02/03 17:07:10;;;;;;;8.90;4.93;;;7.40;99.70;;;;;;5052828;28;20448;-63
2022/02/03 17:09:38;;;;;;;13.20;4.70;;;7.30;99.70;;;;;;5052349;28;20448;-67
2022/02/03 17:12:06;;;;;;;9.03;4.70;;;7.30;99.70;;;;;;5034152;28;20484;-66
2022/02/03 17:14:32;;;;;;;8.07;4.50;;;7.30;99.70;;;;;;5034055;28;20488;-63
2022/02/03 17:16:59;;;;;;;8.23;4.03;;;7.40;99.70;;;;;;5034062;28;20464;-67
2022/02/03 17:19:26;;;;;;;7.70;4.23;;;7.50;99.70;;;;;;5033752;28;20444;-67
2022/02/03 17:21:53;;;;;;;10.90;5.47;;;7.50;99.70;;;;;;5053637;28;20448;-66
2022/02/03 17:24:21;;;;;;;10.77;5.40;;;7.40;99.70;;;;;;5053289;28;20471;-66
2022/02/03 17:26:56;;;;;;;30.30;12.47;;;7.40;99.70;;;;;;5054256;28;20446;-66
2022/02/03 17:29:32;;;;;;;31.20;14.30;;;7.30;99.70;;;;;;5053923;28;20446;-67
2022/02/03 17:32:06;;;;;;;23.23;10.87;;;7.30;99.70;;;;;;5034172;28;20476;-66
2022/02/03 18:08:28;;;;;;;15.63;7.30;;;7.40;99.70;;;;;;5050002;28;20846;-66
2022/02/03 18:11:01;;;;;;;13.53;7.33;;;7.40;99.70;;;;;;5051112;28;20446;-66
2022/02/03 18:30:25;;;;;;;12.03;5.63;;;7.10;99.70;;;;;;4953180;28;20440;-66
2022/02/03 18:33:10;;;;;;;15.23;5.57;;;7.10;99.70;;;;;;5000288;28;20444;-66
2022/02/03 18:52:10;;;;;;;12.07;6.57;;;6.90;99.70;;;;;;5033870;28;20524;-66
2022/02/03 18:54:55;;;;;;;14.90;6.93;;;6.90;99.70;;;;;;5035108;28;20554;-66
2022/02/03 18:57:33;;;;;;;20.23;7.60;;;6.90;99.70;;;;;;5043298;28;20525;-67
2022/02/03 19:03:16;;;;;;;17.87;7.80;;;6.80;99.70;;;;;;5034380;28;20785;-68
2022/02/03 20:04:11;;;;;;;22.30;11.70;;;5.90;99.70;;;;;;5038860;28;20470;-68
2022/02/03 20:06:50;;;;;;;22.70;11.30;;;5.80;99.70;;;;;;5046925;28;20528;-68
2022/02/03 20:09:26;;;;;;;24.93;11.63;;;5.80;99.70;;;;;;5049530;28;20496;-67
2022/02/03 20:11:53;;;;;;;23.90;11.90;;;5.80;99.70;;;;;;5050650;28;20521;-68
2022/02/03 20:14:20;;;;;;;29.13;13.80;;;5.70;99.70;;;;;;5043923;28;20505;-69
2022/02/03 20:16:48;;;;;;;29.90;15.57;;;5.60;99.70;;;;;;5050108;28;20891;-68
2022/02/03 20:19:15;;;;;;;30.80;13.87;;;5.60;99.70;;;;;;5036397;28;20480;-68
2022/02/03 20:21:42;;;;;;;37.73;17.90;;;5.60;99.70;;;;;;5032714;28;20526;-69
2022/02/03 20:24:09;;;;;;;33.47;16.20;;;5.60;99.70;;;;;;5037461;28;20503;-68
2022/02/03 20:26:41;;;;;;;37.33;15.40;;;5.60;99.70;;;;;;5032794;28;20441;-68
2022/02/03 20:29:07;;;;;;;28.73;13.97;;;5.60;99.70;;;;;;5040082;28;20494;-68
2022/02/03 20:31:34;;;;;;;33.57;15.57;;;5.60;99.70;;;;;;5048406;28;20513;-68
2022/02/03 20:34:01;;;;;;;31.57;15.60;;;5.60;99.70;;;;;;5038558;28;21003;-68
2022/02/03 20:36:28;;;;;;;27.00;13.77;;;5.50;99.70;;;;;;5032649;28;20838;-69
2022/02/03 20:38:55;;;;;;;30.30;15.37;;;5.50;99.70;;;;;;5044077;28;20484;-68
2022/02/03 20:41:23;;;;;;;30.67;16.13;;;5.50;99.70;;;;;;5047916;28;20475;-68
2022/02/03 20:43:52;;;;;;;31.30;15.27;;;5.50;99.70;;;;;;5047880;28;20474;-68
2022/02/03 20:46:19;;;;;;;34.00;15.70;;;5.50;99.70;;;;;;5048378;28;20475;-68
2022/02/03 20:48:46;;;;;;;33.93;16.43;;;5.50;99.70;;;;;;5034292;28;20452;-69
2022/02/03 20:51:14;;;;;;;34.30;16.27;;;5.40;99.70;;;;;;5049422;28;20484;-69
2022/02/03 20:53:41;;;;;;;32.50;15.13;;;5.50;99.70;;;;;;5053217;28;20525;-68
2022/02/03 20:56:08;;;;;;;29.40;15.00;;;5.50;99.70;;;;;;5051559;28;20447;-68
2022/02/03 20:58:35;;;;;;;26.77;13.57;;;5.40;99.70;;;;;;5045008;28;20484;-68
2022/02/03 21:01:11;;;;;;;29.07;13.33;;;5.40;99.70;;;;;;5036745;28;20522;-68
2022/02/03 21:03:40;;;;;;;27.50;13.10;;;5.30;99.70;;;;;;5042862;28;20476;-68
2022/02/03 21:06:09;;;;;;;25.33;13.30;;;5.30;99.70;;;;;;5040786;28;20887;-68
2022/02/03 21:08:38;;;;;;;25.80;12.97;;;5.20;99.70;;;;;;5059019;22;20500;-64
2022/02/03 21:11:05;;;;;;;23.33;11.63;;;5.30;99.70;;;;;;5034336;28;20960;-64
2022/02/03 21:13:32;;;;;;;25.80;12.00;;;5.40;99.70;;;;;;5041150;28;20824;-64
2022/02/03 21:16:00;;;;;;;24.10;12.07;;;5.40;99.70;;;;;;5014689;28;20477;-66
2022/02/03 21:18:30;;;;;;;28.47;11.70;;;5.50;99.70;;;;;;5021195;28;20491;-66